Pagina principale
METAR-TAF:

METAR-TAF

Aeroporti :

Aeroporto di Zurigo

Zurigo, Svizzera

latitudine: 47-29N, longitudine: 008-32E, altezza: 436 m

Osservazione

Il bollettino è stato emesso 27 minuti fa, alle 23:50 UTC
Vento 1 kt da direzioni variabili
Temperature 14°C
Umidità 88%
Pressione 1020 hPa
Visibilità 10 km o più
nessuna nube inferiore a 1500 m e nessun cumulonembo

METAR: LSZH 142350Z AUTO VRB01KT CAVOK 14/12 Q1020 NOSIG

Ora: 02:17 (00:17 UTC)

Previsione

Il bollettino è stato emesso 52 minuti fa, alle 23:25 UTC
Previsione valida dal 15 alle 00 UTC al 16 alle 06 UTC
Vento 2 kt da direzioni variabili
Visibilità 10 km o più
nessuna nube inferiore a 1500 m e nessun cumulonembo

TAF: LSZH 142325Z 1500/1606 VRB02KT CAVOK TX29/1515Z TN12/1504Z TN14/1604Z

Osservazioni e previsioni meteorologiche di più di 4000 aeroporti (messaggi METAR e TAF).

Le stazioni disponibili sono rappresentate dai dischi gialli e rossi sulla carta.

Puntare il mouse per vedere il nome della stazione.

Clicca sopra per visualizzare le osservazioni e previsioni meteorologiche.

Per cambiare la mappa : fare clic sui pulsanti verdi con una croce nera per ingrandire, il pulsante verde con un trattino per diminuire, o sulla freccia verde per le mappe adiacenti.


METAR-TAF: